Milwaukee, WI

8:07 PM CDT on August 24, 2016 (GMT -0500)
Milwaukee Harbor | | Change Station

Elev 591 ft 43.02 °N, 87.91 °W | Updated 13 seconds ago

Scattered Clouds
Scattered Clouds
82.6 °F
Feels Like 84 °F
N
3.6
Wind Variable Wind from WSW
Gusts 4.9 mph

Today
High -- | Low -- °F
--% Chance of Precip.
Yesterday
High -- | Low -- °F
Precip. -- in
Pressure 29.91 in
Visibility 10.0 miles
Clouds Few 3300 ft
Few 15000 ft
Scattered Clouds 25000 ft
Heat Index 84 °F
Dew Point 64 °F
Humidity 54%
Rainfall 0.15 in
Snow Depth Not available.
6:07 AM 7:39 PM
Waning Gibbous, 51% visible
METAR KMKE 250052Z 26006KT 10SM FEW033 FEW150 SCT250 28/22 A2993 RMK AO2 SLP129 TCU DSNT W CB DSNT NW T02830217
Pressure 29.91 in
Visibility 10.0 miles
Clouds Few 3300 ft
Few 15000 ft
Scattered Clouds 25000 ft
Heat Index 84 °F
Dew Point 64 °F
Humidity 54%
Rainfall 0.15 in
Snow Depth Not available.
6:07 AM 7:39 PM
Waning Gibbous, 51% visible
METAR KMKE 250052Z 26006KT 10SM FEW033 FEW150 SCT250 28/22 A2993 RMK AO2 SLP129 TCU DSNT W CB DSNT NW T02830217

10-Day Weather Forecast

Almanac

Astronomy

Aug. 24, 2016 Rise Set
Actual Time
Civil Twilight
Nautical Twilight
Astronomical Twilight
Moon
Length of Visible Light
Length of Day
Tomorrow will be .
, % of the Moon is Illuminated

Today's Extremes

State Highs State Lows

Community

WunderPhotos

Upload Photos

1,934,757 photos uploaded!

WunderBlog® & News

Nearby

Air Quality

  Air Quality AQ Index Pollutant
Not available.

Snow Depth

Station Depth Elevation

Earthquake Activity

City Distance Mag. Time & Date
Minimum magnitude displayed is 2.5.

Coastal Water Temperatures

Place Temperature

Stations

Nearby Weather Stations

Station Location Temp. Windchill Dew Point Humidity Wind Precip. Elev Updated Type
                   

Watches & Warnings

There are currently no watches in effect.